Frederika, Iowa
Current Conditions -  °F | °C
As of 9:15 AM on Friday 19 Dec 2014 (Local Time) from KCCY Reporting Station
Overcast Overcast  
Wind Chill: 16°   Ceiling: 3100
Heat Index: 25°   Visibility: 7mi
Dew Point: 23°   Wind: 8mph
Humidity: 93%   Direction: 150°SSE
Pressure: 30.26"   Gusts: NA
Location:  42.88°N, 92.31°W
Report Text: KCCY 191515Z AUTO 15007KT 7SM OVC031 M04/M05 A3026 RMK AO2
Loading
Personal Weather Stations






























Interactive Weather Map New forecast layout! Learn more

10-Day Weather Forecast

Advertisements
Track Severe Weather on mobile